createdAt,value
2023-06-30T00:00:37.986Z,313.67
2023-06-30T00:01:41.314Z,312.33
2023-06-30T00:02:47.673Z,312.00
2023-06-30T00:03:50.458Z,313.33
2023-06-30T00:04:55.086Z,314.67
2023-06-30T00:05:57.354Z,315.67
2023-06-30T00:07:00.863Z,315.33
2023-06-30T00:08:04.484Z,314.50
2023-06-30T00:09:09.139Z,312.83
2023-06-30T00:10:12.851Z,310.83
2023-06-30T00:11:15.464Z,307.33
2023-06-30T00:12:18.913Z,304.67
2023-06-30T00:13:21.118Z,304.17
2023-06-30T00:14:25.028Z,305.00
2023-06-30T00:15:27.225Z,305.00
2023-06-30T00:16:31.564Z,303.17
2023-06-30T00:17:33.886Z,301.00
2023-06-30T00:18:37.355Z,301.17
2023-06-30T00:19:39.514Z,302.00
2023-06-30T00:20:43.963Z,302.33
2023-06-30T00:21:46.223Z,303.00
2023-06-30T00:22:49.379Z,303.83
2023-06-30T00:23:51.572Z,304.67
2023-06-30T00:24:56.417Z,306.17
2023-06-30T00:25:58.728Z,307.00
2023-06-30T00:27:01.990Z,307.00
2023-06-30T00:28:04.608Z,306.83
2023-06-30T00:29:08.274Z,306.00
2023-06-30T00:30:10.966Z,305.83
2023-06-30T00:31:14.390Z,304.33
2023-06-30T00:32:16.703Z,302.67
2023-06-30T00:33:19.873Z,301.17
2023-06-30T00:34:22.069Z,301.67
2023-06-30T00:35:25.189Z,303.83
2023-06-30T00:36:30.194Z,305.67
2023-06-30T00:37:33.475Z,306.00
2023-06-30T00:38:35.743Z,306.83
2023-06-30T00:39:38.921Z,307.67
2023-06-30T00:40:41.073Z,308.17
2023-06-30T00:41:44.244Z,309.00
2023-06-30T00:42:46.490Z,309.50
2023-06-30T00:43:49.632Z,310.50
2023-06-30T00:44:51.820Z,311.33
2023-06-30T00:45:55.004Z,312.00
2023-06-30T00:47:01.009Z,312.00
2023-06-30T00:48:05.185Z,312.00
2023-06-30T00:49:07.458Z,312.00
2023-06-30T00:50:11.467Z,311.17
2023-06-30T00:51:14.115Z,311.00
2023-06-30T00:52:18.916Z,309.83
2023-06-30T00:53:21.109Z,308.50
2023-06-30T00:54:24.339Z,306.83
2023-06-30T00:55:27.187Z,306.00
2023-06-30T00:56:30.391Z,305.17
2023-06-30T00:57:32.645Z,301.50
2023-06-30T00:58:35.783Z,296.17
2023-06-30T00:59:37.970Z,292.17
2023-06-30T01:00:41.107Z,289.83
2023-06-30T01:01:50.272Z,290.17
2023-06-30T01:03:02.538Z,291.00
2023-06-30T01:04:14.085Z,292.00
2023-06-30T01:05:21.293Z,292.83
2023-06-30T01:06:29.723Z,292.50
2023-06-30T01:07:40.495Z,292.00
2023-06-30T01:08:46.408Z,292.17
2023-06-30T01:09:56.802Z,293.33
2023-06-30T01:10:59.387Z,296.17
2023-06-30T01:12:02.837Z,298.83
2023-06-30T01:13:06.766Z,303.50
2023-06-30T01:14:11.113Z,307.50
2023-06-30T01:15:15.031Z,308.50
2023-06-30T01:16:20.448Z,309.50
2023-06-30T01:17:26.322Z,310.50
2023-06-30T01:18:33.782Z,312.17
2023-06-30T01:19:39.352Z,313.67
2023-06-30T01:20:43.189Z,314.33
2023-06-30T01:21:47.894Z,315.00
2023-06-30T01:22:54.843Z,315.00
2023-06-30T01:23:59.990Z,315.00
2023-06-30T01:25:08.154Z,314.67
2023-06-30T01:26:10.772Z,314.00
2023-06-30T01:27:14.354Z,314.00
2023-06-30T01:28:17.582Z,313.33
2023-06-30T01:29:22.097Z,313.00
2023-06-30T01:30:25.422Z,313.00
2023-06-30T01:31:32.192Z,312.33
2023-06-30T01:32:34.626Z,311.83
2023-06-30T01:33:39.224Z,310.83
2023-06-30T01:34:41.369Z,308.33
2023-06-30T01:35:45.477Z,304.67
2023-06-30T01:36:49.022Z,301.17
2023-06-30T01:37:54.349Z,299.67
2023-06-30T01:38:56.612Z,300.00
2023-06-30T01:40:00.813Z,300.00
2023-06-30T01:41:03.293Z,300.00
2023-06-30T01:42:07.706Z,300.83
2023-06-30T01:43:10.241Z,301.00
2023-06-30T01:44:14.037Z,301.00
2023-06-30T01:45:16.867Z,301.00
2023-06-30T01:46:20.133Z,300.17
2023-06-30T01:47:22.672Z,299.00
2023-06-30T01:48:26.464Z,298.33
2023-06-30T01:49:29.599Z,298.00
2023-06-30T01:50:34.094Z,298.67
2023-06-30T01:51:36.318Z,299.00
2023-06-30T01:52:39.436Z,299.00
2023-06-30T01:53:44.111Z,299.00
2023-06-30T01:54:46.411Z,299.00
2023-06-30T01:55:50.143Z,299.00
2023-06-30T01:56:52.357Z,299.67
2023-06-30T01:57:55.626Z,300.33
2023-06-30T01:58:57.827Z,301.00
2023-06-30T02:00:01.153Z,301.67
2023-06-30T02:01:03.385Z,302.00
2023-06-30T02:02:06.812Z,302.00
2023-06-30T02:03:09.058Z,301.67
2023-06-30T02:04:12.346Z,301.00
2023-06-30T02:05:14.569Z,300.17
2023-06-30T02:06:17.743Z,301.00
2023-06-30T02:07:19.997Z,301.00
2023-06-30T02:08:23.119Z,301.00
2023-06-30T02:09:38.853Z,301.00
2023-06-30T02:10:49.835Z,301.00
2023-06-30T02:11:52.049Z,301.00
2023-06-30T02:12:55.217Z,301.00
2023-06-30T02:13:57.397Z,301.00
2023-06-30T02:15:00.546Z,301.00
2023-06-30T02:16:03.118Z,301.00
2023-06-30T02:17:07.851Z,301.00
2023-06-30T02:18:09.973Z,301.00
2023-06-30T02:19:13.185Z,301.00
2023-06-30T02:20:15.417Z,300.50
2023-06-30T02:21:18.577Z,299.50
2023-06-30T02:22:20.748Z,297.83
2023-06-30T02:23:24.082Z,296.33
2023-06-30T02:24:27.696Z,294.83
2023-06-30T02:25:30.865Z,293.33
2023-06-30T02:26:33.050Z,290.83
2023-06-30T02:27:36.230Z,290.00
2023-06-30T02:28:38.404Z,289.50
2023-06-30T02:29:41.577Z,282.83
2023-06-30T02:30:44.215Z,281.50
2023-06-30T02:31:47.597Z,282.67
2023-06-30T02:32:49.983Z,282.17
2023-06-30T02:33:54.018Z,283.00
2023-06-30T02:34:56.261Z,282.83
2023-06-30T02:35:59.525Z,282.00
2023-06-30T02:37:02.243Z,281.17
2023-06-30T02:38:06.564Z,281.00
2023-06-30T02:39:08.753Z,281.00
2023-06-30T02:40:13.593Z,280.33
2023-06-30T02:41:15.829Z,280.00
2023-06-30T02:42:18.962Z,280.00
2023-06-30T02:43:21.107Z,279.17
2023-06-30T02:44:24.292Z,276.50
2023-06-30T02:45:27.454Z,275.00
2023-06-30T02:46:29.762Z,275.00
2023-06-30T02:47:33.069Z,275.00
2023-06-30T02:48:35.227Z,275.67
2023-06-30T02:49:38.390Z,276.00
2023-06-30T02:50:40.556Z,276.00
2023-06-30T02:51:43.725Z,275.00
2023-06-30T02:52:45.992Z,274.33
2023-06-30T02:53:49.158Z,273.00
2023-06-30T02:54:51.427Z,271.33
2023-06-30T02:55:55.911Z,268.17
2023-06-30T02:56:58.127Z,265.50
2023-06-30T02:58:01.536Z,265.00
2023-06-30T02:59:03.817Z,265.00
2023-06-30T03:00:09.257Z,263.67
2023-06-30T03:01:11.550Z,261.33
2023-06-30T03:02:14.915Z,257.50
2023-06-30T03:03:17.278Z,254.67
2023-06-30T03:04:20.721Z,254.00
2023-06-30T03:05:23.010Z,252.67
2023-06-30T03:06:26.173Z,251.00
2023-06-30T03:07:28.467Z,249.17
2023-06-30T03:08:32.174Z,247.00
2023-06-30T03:09:34.448Z,244.67
2023-06-30T03:10:37.570Z,243.17
2023-06-30T03:11:41.182Z,242.17
2023-06-30T03:12:44.373Z,240.83
2023-06-30T03:13:47.592Z,239.67
2023-06-30T03:14:50.725Z,239.17
2023-06-30T03:15:52.914Z,240.33
2023-06-30T03:16:56.108Z,241.33
2023-06-30T03:17:58.387Z,242.33
2023-06-30T03:19:01.574Z,243.33
2023-06-30T03:20:09.870Z,244.33
2023-06-30T03:21:13.042Z,245.33
2023-06-30T03:22:15.213Z,246.50
2023-06-30T03:23:19.935Z,247.33
2023-06-30T03:24:22.116Z,248.00
2023-06-30T03:25:25.550Z,248.00
2023-06-30T03:26:29.606Z,248.33
2023-06-30T03:27:34.666Z,249.00
2023-06-30T03:28:36.908Z,249.00
2023-06-30T03:29:40.091Z,249.00
2023-06-30T03:30:42.395Z,250.00
2023-06-30T03:31:45.541Z,250.67
2023-06-30T03:32:47.750Z,251.33
2023-06-30T03:33:50.894Z,252.50
2023-06-30T03:34:53.478Z,253.00
2023-06-30T03:35:56.693Z,253.83
2023-06-30T03:36:59.863Z,254.00
2023-06-30T03:38:02.006Z,254.00
2023-06-30T03:39:06.285Z,254.00
2023-06-30T03:40:09.505Z,254.00
2023-06-30T03:41:12.760Z,254.33
2023-06-30T03:42:15.011Z,255.00
2023-06-30T03:43:22.345Z,255.00
2023-06-30T03:44:25.526Z,255.00
2023-06-30T03:45:27.690Z,255.00
2023-06-30T03:46:30.900Z,256.00
2023-06-30T03:47:33.104Z,256.33
2023-06-30T03:48:36.361Z,258.33
2023-06-30T03:49:38.523Z,261.83
2023-06-30T03:50:43.468Z,264.83
2023-06-30T03:51:45.827Z,267.33
2023-06-30T03:52:49.004Z,269.50
2023-06-30T03:53:51.448Z,270.00
2023-06-30T03:54:54.910Z,270.00
2023-06-30T03:55:58.996Z,270.67
2023-06-30T03:57:02.176Z,271.00
2023-06-30T03:58:04.306Z,271.00
2023-06-30T03:59:09.958Z,271.00
2023-06-30T04:00:13.824Z,272.33
2023-06-30T04:01:17.084Z,275.00
2023-06-30T04:02:19.290Z,276.83
2023-06-30T04:03:24.283Z,277.00
2023-06-30T04:04:28.179Z,277.00
2023-06-30T04:05:31.452Z,277.00
2023-06-30T04:06:34.831Z,277.00
2023-06-30T04:07:38.750Z,277.00
2023-06-30T04:08:41.140Z,277.00
2023-06-30T04:09:44.312Z,277.33
2023-06-30T04:10:46.462Z,277.67
2023-06-30T04:11:50.515Z,277.00
2023-06-30T04:12:52.669Z,276.50
2023-06-30T04:13:55.875Z,275.50
2023-06-30T04:14:59.398Z,275.00
2023-06-30T04:16:02.691Z,274.67
2023-06-30T04:17:05.573Z,274.00
2023-06-30T04:18:08.738Z,274.00
2023-06-30T04:19:10.957Z,274.00
2023-06-30T04:20:16.988Z,274.00
2023-06-30T04:21:19.166Z,272.83
2023-06-30T04:22:23.165Z,270.00
2023-06-30T04:23:26.305Z,266.33
2023-06-30T04:24:28.450Z,262.50
2023-06-30T04:25:31.708Z,259.50
2023-06-30T04:26:34.339Z,257.83
2023-06-30T04:27:37.879Z,257.50
2023-06-30T04:28:40.328Z,258.00
2023-06-30T04:29:43.537Z,258.50
2023-06-30T04:30:48.426Z,258.67
2023-06-30T04:31:51.734Z,258.00
2023-06-30T04:32:53.970Z,257.50
2023-06-30T04:33:57.187Z,255.00
2023-06-30T04:34:59.401Z,252.33
2023-06-30T04:36:02.878Z,250.83
2023-06-30T04:37:05.390Z,244.67
2023-06-30T04:38:08.558Z,238.33
2023-06-30T04:39:10.823Z,235.83
2023-06-30T04:40:14.034Z,230.67
2023-06-30T04:41:16.715Z,226.50
2023-06-30T04:42:19.996Z,225.67
2023-06-30T04:43:22.143Z,224.83
2023-06-30T04:44:25.386Z,223.50
2023-06-30T04:45:27.696Z,222.17
2023-06-30T04:46:32.226Z,219.33
2023-06-30T04:47:35.239Z,219.00
2023-06-30T04:48:38.397Z,213.67
2023-06-30T04:49:40.585Z,211.33
2023-06-30T04:50:43.836Z,215.50
2023-06-30T04:51:45.987Z,217.50
2023-06-30T04:52:49.113Z,218.83
2023-06-30T04:53:51.547Z,218.50
2023-06-30T04:54:56.212Z,217.00
2023-06-30T04:55:58.411Z,223.67
2023-06-30T04:57:01.630Z,232.17
2023-06-30T04:58:04.030Z,226.33
2023-06-30T04:59:07.248Z,211.67
2023-06-30T05:00:10.632Z,205.00
2023-06-30T05:01:13.988Z,198.50
2023-06-30T05:02:17.629Z,202.00
2023-06-30T05:03:21.134Z,208.33
2023-06-30T05:04:23.402Z,212.83
2023-06-30T05:05:26.748Z,215.67
2023-06-30T05:06:29.079Z,215.83
2023-06-30T05:07:32.247Z,214.33
2023-06-30T05:08:34.474Z,211.83
2023-06-30T05:09:38.274Z,208.50
2023-06-30T05:10:40.586Z,202.67
2023-06-30T05:11:43.666Z,201.67
2023-06-30T05:12:45.837Z,205.83
2023-06-30T05:13:49.007Z,205.33
2023-06-30T05:14:51.539Z,205.67
2023-06-30T05:15:55.212Z,203.33
2023-06-30T05:16:57.565Z,207.33
2023-06-30T05:18:02.306Z,207.00
2023-06-30T05:19:04.610Z,207.00
2023-06-30T05:20:09.368Z,207.00
2023-06-30T05:21:11.559Z,207.00
2023-06-30T05:22:15.186Z,203.33
2023-06-30T05:23:17.461Z,195.67
2023-06-30T05:24:20.577Z,194.83
2023-06-30T05:25:22.716Z,191.50
2023-06-30T05:26:25.842Z,180.67
2023-06-30T05:27:28.023Z,179.83
2023-06-30T05:28:31.196Z,211.83
2023-06-30T05:29:33.532Z,216.33
2023-06-30T05:30:36.719Z,218.17
2023-06-30T05:31:38.985Z,239.33
2023-06-30T05:32:42.197Z,230.67
2023-06-30T05:33:45.797Z,223.00
2023-06-30T05:34:48.948Z,221.17
2023-06-30T05:35:52.163Z,220.17
2023-06-30T05:36:57.016Z,218.00
2023-06-30T05:38:01.163Z,215.17
2023-06-30T05:39:03.542Z,222.33
2023-06-30T05:40:08.326Z,219.67
2023-06-30T05:41:11.092Z,200.83
2023-06-30T05:42:14.268Z,197.33
2023-06-30T05:43:18.454Z,198.83
2023-06-30T05:44:21.671Z,192.33
2023-06-30T05:45:23.875Z,186.17
2023-06-30T05:46:27.108Z,185.17
2023-06-30T05:47:29.379Z,188.00
2023-06-30T05:48:32.515Z,189.67
2023-06-30T05:49:36.068Z,195.00
2023-06-30T05:50:41.435Z,192.83
2023-06-30T05:51:44.576Z,166.00
2023-06-30T05:52:47.722Z,177.67
2023-06-30T05:53:49.958Z,198.67
2023-06-30T05:54:53.221Z,219.00
2023-06-30T05:55:56.873Z,214.17
2023-06-30T05:57:00.038Z,202.33
2023-06-30T05:58:02.242Z,189.83
2023-06-30T05:59:05.968Z,189.33
2023-06-30T06:00:09.390Z,191.50
2023-06-30T06:01:12.566Z,215.83
2023-06-30T06:02:14.944Z,223.83
2023-06-30T06:03:18.349Z,222.83
2023-06-30T06:04:20.980Z,234.17
2023-06-30T06:05:25.812Z,225.00
2023-06-30T06:06:28.596Z,248.33
2023-06-30T06:07:31.804Z,238.00
2023-06-30T06:08:34.021Z,228.00
2023-06-30T06:09:37.255Z,203.17
2023-06-30T06:10:39.591Z,184.00
2023-06-30T06:11:43.567Z,176.00
2023-06-30T06:12:46.037Z,197.50
2023-06-30T06:13:49.282Z,217.83
2023-06-30T06:14:51.520Z,222.83
2023-06-30T06:15:54.767Z,222.33
2023-06-30T06:16:57.039Z,210.17
2023-06-30T06:18:00.254Z,206.33
2023-06-30T06:19:02.488Z,201.83
2023-06-30T06:20:06.491Z,239.67
2023-06-30T06:21:10.368Z,260.67
2023-06-30T06:22:13.531Z,248.50
2023-06-30T06:23:15.715Z,229.67
2023-06-30T06:24:18.863Z,212.33
2023-06-30T06:25:21.112Z,243.83
2023-06-30T06:26:24.359Z,237.17
2023-06-30T06:27:26.631Z,175.17
2023-06-30T06:28:29.782Z,156.17
2023-06-30T06:29:32.974Z,146.83
2023-06-30T06:30:35.257Z,139.17
2023-06-30T06:31:38.388Z,145.33
2023-06-30T06:32:40.677Z,143.67
2023-06-30T06:33:44.048Z,145.33
2023-06-30T06:34:47.093Z,145.33
2023-06-30T06:35:52.157Z,126.67
2023-06-30T06:36:55.748Z,124.50
2023-06-30T06:37:58.964Z,125.00
2023-06-30T06:39:03.658Z,105.50
2023-06-30T06:40:08.789Z,84.50
2023-06-30T06:41:10.966Z,94.83
2023-06-30T06:42:14.192Z,87.83
2023-06-30T06:43:16.633Z,89.17
2023-06-30T06:44:19.817Z,123.33
2023-06-30T06:45:21.992Z,145.00
2023-06-30T06:46:25.267Z,125.67
2023-06-30T06:48:05.737Z,89.83
2023-06-30T06:49:08.940Z,56.00
2023-06-30T06:50:11.326Z,48.00
2023-06-30T06:51:14.514Z,49.17
2023-06-30T06:52:18.083Z,67.67
2023-06-30T06:53:23.943Z,66.33
2023-06-30T06:54:26.154Z,89.00
2023-06-30T06:55:29.313Z,105.00
2023-06-30T06:56:32.696Z,102.33
2023-06-30T06:57:35.019Z,103.67
2023-06-30T06:58:39.224Z,87.67
2023-06-30T06:59:41.502Z,49.17
2023-06-30T07:00:45.667Z,47.50
2023-06-30T07:01:47.889Z,41.67
2023-06-30T07:02:51.301Z,32.83
2023-06-30T07:03:54.579Z,27.17
2023-06-30T07:04:56.855Z,27.33
2023-06-30T07:06:00.408Z,39.67
2023-06-30T07:07:02.608Z,50.50
2023-06-30T07:08:07.354Z,51.50
2023-06-30T07:09:10.479Z,55.67
2023-06-30T07:10:12.788Z,138.67
2023-06-30T07:11:15.925Z,268.50
2023-06-30T07:12:18.128Z,298.00
2023-06-30T07:13:23.115Z,285.50
2023-06-30T07:14:25.329Z,269.50
2023-06-30T07:15:28.702Z,193.33
2023-06-30T07:16:31.095Z,118.17
2023-06-30T07:17:34.553Z,98.33
2023-06-30T07:18:37.882Z,102.83
2023-06-30T07:19:40.290Z,60.17
2023-06-30T07:20:43.509Z,56.17
2023-06-30T07:21:45.735Z,47.83
2023-06-30T07:22:48.954Z,32.33
2023-06-30T07:23:53.652Z,31.83
2023-06-30T07:24:55.902Z,30.00
2023-06-30T07:25:59.172Z,23.50
2023-06-30T07:27:01.396Z,22.17
2023-06-30T07:28:05.075Z,30.83
2023-06-30T07:29:07.264Z,70.67
2023-06-30T07:30:10.880Z,130.33
2023-06-30T07:31:14.127Z,104.00
2023-06-30T07:32:19.080Z,90.67
2023-06-30T07:33:22.342Z,77.17
2023-06-30T07:34:24.954Z,42.17
2023-06-30T07:35:28.178Z,26.67
2023-06-30T07:36:30.789Z,23.17
2023-06-30T07:37:33.977Z,21.50
2023-06-30T07:38:36.166Z,18.83
2023-06-30T07:39:40.708Z,15.83
2023-06-30T07:40:55.052Z,13.50
2023-06-30T07:41:58.540Z,12.17
2023-06-30T07:43:01.680Z,11.00
2023-06-30T07:44:04.368Z,11.33
2023-06-30T07:45:10.295Z,13.17
2023-06-30T07:46:12.642Z,15.33
2023-06-30T07:47:15.799Z,16.00
2023-06-30T07:48:18.084Z,16.00
2023-06-30T07:49:23.116Z,15.00
2023-06-30T07:50:26.506Z,14.00
2023-06-30T07:51:28.681Z,14.33
2023-06-30T07:52:31.811Z,15.83
2023-06-30T07:53:34.777Z,16.00
2023-06-30T07:54:38.036Z,16.00
2023-06-30T07:55:41.548Z,16.00
2023-06-30T07:56:46.514Z,15.50
2023-06-30T07:57:49.299Z,14.50
2023-06-30T07:58:52.465Z,14.00
2023-06-30T07:59:56.442Z,12.83
2023-06-30T08:01:00.260Z,11.67
2023-06-30T08:02:02.565Z,10.50
2023-06-30T08:03:05.997Z,10.00
2023-06-30T08:04:08.622Z,10.33
2023-06-30T08:05:12.754Z,11.00
2023-06-30T08:06:15.166Z,11.00
2023-06-30T08:07:18.531Z,12.17
2023-06-30T08:08:21.703Z,23.00
2023-06-30T08:09:23.882Z,38.17
2023-06-30T08:10:27.022Z,46.33
2023-06-30T08:11:31.872Z,45.33
2023-06-30T08:12:35.083Z,50.33
2023-06-30T08:13:38.712Z,42.67
2023-06-30T08:14:41.960Z,40.33
2023-06-30T08:15:46.570Z,37.83
2023-06-30T08:16:51.139Z,29.50
2023-06-30T08:17:58.611Z,20.83
2023-06-30T08:19:01.154Z,21.00
2023-06-30T08:20:04.901Z,20.17
2023-06-30T08:21:07.580Z,17.67
2023-06-30T08:22:14.594Z,15.83
2023-06-30T08:23:16.911Z,15.00
2023-06-30T08:24:20.130Z,15.00
2023-06-30T08:25:24.773Z,15.00
2023-06-30T08:26:28.041Z,14.83
2023-06-30T08:27:31.999Z,13.83
2023-06-30T08:28:35.177Z,12.67
2023-06-30T08:29:37.675Z,11.83
2023-06-30T08:30:40.893Z,12.00
2023-06-30T08:31:43.180Z,12.50
2023-06-30T08:32:46.592Z,14.33
2023-06-30T08:33:48.951Z,15.00
2023-06-30T08:34:52.058Z,15.00
2023-06-30T08:35:54.206Z,14.00
2023-06-30T08:36:57.802Z,13.00
2023-06-30T08:37:59.931Z,12.17
2023-06-30T08:39:03.134Z,11.17
2023-06-30T08:40:06.653Z,11.17
2023-06-30T08:41:11.021Z,12.00
2023-06-30T08:42:16.485Z,12.00
2023-06-30T08:43:24.122Z,12.00
2023-06-30T08:44:26.506Z,12.00
2023-06-30T08:45:31.700Z,12.00
2023-06-30T08:46:34.987Z,11.00
2023-06-30T08:47:39.762Z,10.83
2023-06-30T08:48:43.168Z,10.00
2023-06-30T08:49:46.286Z,9.33
2023-06-30T08:50:50.492Z,9.00
2023-06-30T08:51:57.444Z,8.00
2023-06-30T08:52:59.996Z,8.00
2023-06-30T08:54:03.496Z,8.00
2023-06-30T08:55:06.455Z,8.17
2023-06-30T08:56:10.949Z,9.00
2023-06-30T08:57:16.375Z,9.00
2023-06-30T08:58:26.452Z,9.17
2023-06-30T08:59:29.989Z,11.50
2023-06-30T09:00:32.228Z,14.67
2023-06-30T09:01:37.436Z,15.17
2023-06-30T09:02:41.359Z,16.00
2023-06-30T09:03:45.280Z,16.00
2023-06-30T09:04:47.811Z,16.00
2023-06-30T09:05:52.595Z,18.00
2023-06-30T09:06:56.131Z,18.67
2023-06-30T09:07:58.874Z,17.17
2023-06-30T09:09:05.447Z,16.00
2023-06-30T09:10:10.849Z,16.33
2023-06-30T09:11:17.917Z,17.00
2023-06-30T09:12:20.373Z,22.33
2023-06-30T09:13:26.432Z,36.50
2023-06-30T09:14:34.637Z,32.67
2023-06-30T09:15:37.968Z,28.33
2023-06-30T09:16:41.205Z,23.17
2023-06-30T09:17:43.829Z,21.17
2023-06-30T09:18:47.843Z,19.00
2023-06-30T09:19:51.215Z,15.50
2023-06-30T09:20:54.352Z,13.33
2023-06-30T09:21:58.403Z,13.83
2023-06-30T09:23:05.503Z,19.00
2023-06-30T09:24:08.889Z,25.50
2023-06-30T09:25:41.220Z,24.33
2023-06-30T09:26:44.536Z,23.00
2023-06-30T09:27:46.781Z,22.33
2023-06-30T09:28:55.933Z,22.00
2023-06-30T09:29:58.200Z,21.17
2023-06-30T09:31:03.207Z,20.67
2023-06-30T09:32:07.293Z,19.33
2023-06-30T09:33:09.959Z,18.00
2023-06-30T09:34:14.506Z,17.17
2023-06-30T09:35:18.236Z,16.50
2023-06-30T09:36:21.898Z,15.50
2023-06-30T09:37:24.228Z,15.00
2023-06-30T09:38:29.527Z,14.50
2023-06-30T09:39:32.734Z,14.00
2023-06-30T09:40:34.920Z,14.00
2023-06-30T09:41:38.386Z,14.00
2023-06-30T09:42:41.999Z,15.00
2023-06-30T09:43:45.204Z,17.83
2023-06-30T09:44:48.869Z,18.83
2023-06-30T09:45:57.310Z,19.67
2023-06-30T09:47:00.483Z,21.50
2023-06-30T09:48:02.744Z,22.50
2023-06-30T09:49:05.999Z,26.50
2023-06-30T09:50:10.338Z,28.00
2023-06-30T09:51:16.244Z,27.17
2023-06-30T09:52:25.140Z,26.83
2023-06-30T09:53:30.203Z,26.00
2023-06-30T09:55:49.276Z,43.50
2023-06-30T09:56:58.848Z,38.67
2023-06-30T09:58:01.126Z,61.83
2023-06-30T09:59:04.300Z,128.33
2023-06-30T10:00:15.861Z,85.83
2023-06-30T10:01:25.794Z,52.17
2023-06-30T10:02:28.169Z,30.67
2023-06-30T10:03:31.658Z,22.50
2023-06-30T10:04:37.294Z,17.67
2023-06-30T10:05:40.488Z,18.83
2023-06-30T10:06:43.635Z,24.67
2023-06-30T10:07:46.003Z,40.67
2023-06-30T10:08:51.223Z,40.67
2023-06-30T10:09:55.216Z,35.67
2023-06-30T10:10:59.345Z,34.17
2023-06-30T10:12:02.590Z,44.33
2023-06-30T10:13:06.304Z,53.00
2023-06-30T10:14:08.568Z,75.67
2023-06-30T10:15:13.576Z,64.17
2023-06-30T10:16:17.933Z,57.33
2023-06-30T10:17:21.572Z,42.00
2023-06-30T10:18:25.655Z,28.67
2023-06-30T10:19:30.066Z,31.33
2023-06-30T10:20:42.994Z,29.00
2023-06-30T10:21:51.116Z,20.67
2023-06-30T10:22:53.887Z,18.00
2023-06-30T10:23:57.481Z,17.00
2023-06-30T10:25:00.452Z,18.67
2023-06-30T10:26:05.540Z,20.17
2023-06-30T10:27:08.315Z,21.00
2023-06-30T10:28:11.528Z,20.33
2023-06-30T10:29:14.893Z,18.33
2023-06-30T10:30:18.450Z,18.00
2023-06-30T10:31:22.349Z,18.67
2023-06-30T10:32:24.654Z,18.67
2023-06-30T10:33:27.963Z,18.00
2023-06-30T10:34:33.725Z,19.00
2023-06-30T10:35:36.885Z,19.00
2023-06-30T10:36:40.771Z,19.00
2023-06-30T10:37:43.520Z,19.00
2023-06-30T10:38:48.068Z,19.00
2023-06-30T10:39:50.443Z,19.00
2023-06-30T10:41:13.873Z,19.00
2023-06-30T10:42:19.780Z,19.00
2023-06-30T10:43:22.029Z,19.00
2023-06-30T10:44:38.157Z,19.00
2023-06-30T10:46:09.729Z,19.83
2023-06-30T10:47:16.278Z,44.83
2023-06-30T10:48:18.529Z,89.17
2023-06-30T10:49:24.577Z,117.50
2023-06-30T10:50:27.802Z,89.00
2023-06-30T10:51:35.371Z,63.67
2023-06-30T10:52:40.702Z,60.17
2023-06-30T10:53:46.828Z,52.00
2023-06-30T10:54:51.080Z,39.00
2023-06-30T10:55:57.049Z,31.83
2023-06-30T10:57:08.345Z,26.67
2023-06-30T10:58:11.610Z,22.67
2023-06-30T10:59:18.978Z,23.00
2023-06-30T11:00:25.733Z,24.00
2023-06-30T11:01:29.375Z,24.50
2023-06-30T11:02:34.237Z,25.00
2023-06-30T11:04:09.841Z,24.00
2023-06-30T11:05:24.260Z,20.17
2023-06-30T11:06:27.810Z,18.17
2023-06-30T11:07:31.843Z,18.00
2023-06-30T11:08:34.150Z,19.50
2023-06-30T11:10:03.778Z,23.83
2023-06-30T11:11:08.832Z,22.67
2023-06-30T11:12:11.106Z,22.00
2023-06-30T11:13:15.085Z,22.00
2023-06-30T11:14:32.199Z,22.00
2023-06-30T11:15:49.063Z,28.17
2023-06-30T11:17:07.897Z,32.50
2023-06-30T11:18:15.255Z,29.67
2023-06-30T11:19:24.462Z,26.33
2023-06-30T11:20:27.800Z,25.00
2023-06-30T11:21:32.658Z,32.00
2023-06-30T11:22:34.926Z,65.33
2023-06-30T11:23:39.737Z,63.00
2023-06-30T11:24:41.931Z,49.17
2023-06-30T11:25:45.238Z,53.33
2023-06-30T11:26:47.574Z,99.67
2023-06-30T11:27:51.122Z,104.67
2023-06-30T11:28:54.828Z,92.00
2023-06-30T11:30:00.261Z,88.67
2023-06-30T11:31:03.694Z,73.33
2023-06-30T11:32:08.053Z,57.00
2023-06-30T11:33:11.349Z,44.17
2023-06-30T11:34:16.368Z,45.50
2023-06-30T11:35:20.078Z,45.67
2023-06-30T11:36:23.298Z,46.67
2023-06-30T11:37:26.351Z,48.00
2023-06-30T11:38:29.689Z,46.50
2023-06-30T11:39:32.161Z,38.50
2023-06-30T11:40:35.360Z,33.67
2023-06-30T11:41:37.581Z,36.00
2023-06-30T11:42:41.221Z,35.00
2023-06-30T11:43:45.651Z,36.00
2023-06-30T11:44:50.240Z,48.83
2023-06-30T11:45:58.661Z,62.33
2023-06-30T11:47:02.201Z,61.17
2023-06-30T11:48:08.033Z,62.67
2023-06-30T11:49:10.690Z,65.83
2023-06-30T11:50:14.766Z,56.50
2023-06-30T11:51:19.219Z,47.17
2023-06-30T11:52:21.652Z,46.00
2023-06-30T11:53:25.129Z,44.50
2023-06-30T11:54:31.023Z,36.00
2023-06-30T11:55:34.396Z,26.17
2023-06-30T11:56:39.922Z,28.17
2023-06-30T11:57:44.604Z,31.33
2023-06-30T11:58:48.833Z,32.67
2023-06-30T11:59:52.083Z,33.00
2023-06-30T12:00:54.253Z,37.17
2023-06-30T12:01:57.561Z,48.50
2023-06-30T12:03:01.044Z,48.00
2023-06-30T12:04:36.136Z,47.33
2023-06-30T12:05:43.393Z,50.00
2023-06-30T12:06:46.957Z,49.50
2023-06-30T12:07:54.492Z,47.50
2023-06-30T12:08:59.743Z,43.33
2023-06-30T12:10:03.953Z,39.00
2023-06-30T12:11:08.222Z,36.50
2023-06-30T12:12:11.883Z,37.00
2023-06-30T12:13:14.463Z,39.33
2023-06-30T12:14:18.485Z,40.67
2023-06-30T12:15:22.975Z,41.17
2023-06-30T12:16:26.855Z,41.83
2023-06-30T12:17:30.304Z,41.67
2023-06-30T12:18:37.835Z,42.00
2023-06-30T12:19:46.906Z,44.67
2023-06-30T12:20:51.837Z,48.17
2023-06-30T12:21:55.302Z,53.17
2023-06-30T12:22:58.593Z,52.50
2023-06-30T12:24:01.989Z,50.17
2023-06-30T12:25:09.117Z,46.83
2023-06-30T12:26:12.736Z,44.50
2023-06-30T12:27:14.959Z,44.00
2023-06-30T12:28:18.720Z,43.33
2023-06-30T12:29:21.557Z,43.17
2023-06-30T12:30:24.903Z,71.17
2023-06-30T12:31:27.131Z,103.33
2023-06-30T12:32:32.249Z,78.83
2023-06-30T12:33:35.456Z,70.00
2023-06-30T12:34:38.155Z,68.00
2023-06-30T12:35:42.905Z,64.00
2023-06-30T12:36:45.435Z,52.33
2023-06-30T12:37:49.518Z,44.50
2023-06-30T12:38:51.807Z,40.50
2023-06-30T12:39:55.197Z,41.33
2023-06-30T12:40:58.695Z,42.50
2023-06-30T12:42:00.954Z,44.33
2023-06-30T12:43:04.205Z,45.50
2023-06-30T12:44:07.795Z,60.17
2023-06-30T12:45:11.656Z,83.83
2023-06-30T12:46:14.888Z,87.50
2023-06-30T12:47:17.158Z,83.17
2023-06-30T12:48:20.513Z,84.00
2023-06-30T12:49:22.887Z,94.83
2023-06-30T12:50:26.062Z,84.33
2023-06-30T12:51:29.634Z,79.00
2023-06-30T12:52:32.822Z,67.17
2023-06-30T12:53:35.069Z,67.50
2023-06-30T12:54:38.330Z,68.00
2023-06-30T12:55:41.530Z,67.67
2023-06-30T12:56:43.828Z,66.50
2023-06-30T12:57:47.001Z,65.83
2023-06-30T12:58:49.206Z,65.67
2023-06-30T12:59:52.482Z,61.17
2023-06-30T13:00:55.131Z,104.00
2023-06-30T13:01:58.328Z,138.50
2023-06-30T13:03:00.799Z,131.50
2023-06-30T13:04:05.104Z,113.17
2023-06-30T13:05:09.491Z,95.67
2023-06-30T13:06:11.779Z,71.67
2023-06-30T13:07:16.349Z,76.17
2023-06-30T13:08:18.598Z,86.33
2023-06-30T13:09:21.728Z,95.33
2023-06-30T13:10:26.409Z,100.83
2023-06-30T13:11:30.186Z,95.33
2023-06-30T13:12:33.635Z,87.00
2023-06-30T13:13:35.846Z,78.83
2023-06-30T13:14:39.046Z,72.33
2023-06-30T13:15:41.344Z,58.83
2023-06-30T13:16:44.574Z,50.50
2023-06-30T13:17:47.805Z,50.50
2023-06-30T13:18:50.077Z,46.00
2023-06-30T13:19:54.101Z,42.33
2023-06-30T13:20:56.347Z,41.50
2023-06-30T13:21:59.976Z,40.17
2023-06-30T13:24:12.850Z,35.83
2023-06-30T13:25:18.129Z,39.00
2023-06-30T13:26:20.403Z,44.83
2023-06-30T13:27:23.661Z,49.83
2023-06-30T13:28:26.029Z,75.00
2023-06-30T13:29:29.220Z,94.83
2023-06-30T13:30:32.397Z,83.17
2023-06-30T13:31:34.688Z,77.33
2023-06-30T13:32:39.352Z,75.50